Flight Track Log - Related Links

Times and Time Zones

All times are in EDT time to prevent confusion due to time zone crossing. See the USC105 flight status page for this flight to view local times or setup timezone preferences in your user account.

Time Position Orientation Groundspeed Altitude Reporting Facility
EDT Latitude Longitude Course Direction KTS MPH feet Rate Location/Type
Wed 10:05:31 PM 39.8217 -82.9222 47° Northeast 109 125 900  Level Indianapolis Center
Wed 10:06:14 PM 39.8378 -82.8997 47° Northeast 119 137 1,400 727 Climbing Indianapolis Center
Wed 10:07:10 PM 39.8703 -82.8850 19° North 141 162 2,100 769 Climbing Indianapolis Center
Wed 10:08:11 PM 39.9089 -82.8881 357° North 140 161 2,900 689 Climbing Indianapolis Center
Wed 10:09:12 PM 39.9500 -82.8867 North 142 163 3,500 689 Climbing Indianapolis Center
Wed 10:10:13 PM 39.9892 -82.8597 28° Northeast 156 180 4,300 738 Climbing Indianapolis Center
Wed 10:11:14 PM 40.0258 -82.8333 29° Northeast 152 175 5,000 336 Climbing Indianapolis Center
Wed 10:12:18 PM 40.0731 -82.7956 31° Northeast 189 217 5,000  Level Indianapolis Center
Wed 10:13:16 PM 40.1142 -82.7661 29° Northeast 187 215 5,000  Level Indianapolis Center
Wed 10:14:17 PM 40.1603 -82.7297 31° Northeast 192 221 5,000  Level Indianapolis Center
Wed 10:15:18 PM 40.2083 -82.6964 28° Northeast 194 223 5,000  Level Indianapolis Center
Wed 10:16:19 PM 40.2517 -82.6631 30° Northeast 192 221 5,000  Level Indianapolis Center
Wed 10:17:20 PM 40.3064 -82.6189 32° Northeast 197 227 5,000  Level Indianapolis Center
Wed 10:18:21 PM 40.3547 -82.5831 29° Northeast 196 226 5,000  Level Indianapolis Center
Wed 10:19:22 PM 40.4019 -82.5478 30° Northeast 195 224 5,000  Level Indianapolis Center
Wed 10:20:23 PM 40.4483 -82.5111 31° Northeast 193 222 5,000  Level Indianapolis Center
Wed 10:21:24 PM 40.4953 -82.4742 31° Northeast 195 224 5,000  Level Indianapolis Center
Wed 10:22:25 PM 40.5428 -82.4397 29° Northeast 194 223 5,000  Level Indianapolis Center
Wed 10:23:26 PM 40.5897 -82.4028 31° Northeast 194 223 5,000  Level Indianapolis Center
Wed 10:24:27 PM 40.6381 -82.3686 28° Northeast 195 224 5,000  Level Indianapolis Center
Wed 10:25:28 PM 40.6836 -82.3319 31° Northeast 192 221 5,000  Level Indianapolis Center
Wed 10:26:29 PM 40.7306 -82.2967 30° Northeast 192 221 5,000  Level Indianapolis Center
Wed 10:27:30 PM 40.7769 -82.2603 31° Northeast 192 221 5,000  Level Indianapolis Center
Wed 10:28:31 PM 40.8231 -82.2239 31° Northeast 192 221 5,000  Level Indianapolis Center
Wed 10:29:32 PM 40.8697 -82.1892 29° Northeast 191 220 5,000  Level Indianapolis Center
Wed 10:30:34 PM 40.9153 -82.1517 32° Northeast 191 220 5,000  Level Indianapolis Center
Wed 10:31:35 PM 40.9628 -82.1156 30° Northeast 194 223 5,000  Level Indianapolis Center
Wed 10:32:48 PM 41.0183 -82.0747 29° Northeast 191 220 5,000  Level Cleveland Center

Login

Don't have an account? Register now (free) for customized features, flight alerts, and more!